createdAt,value
2022-11-30T00:02:04.260Z,15.05
2022-11-30T00:04:26.922Z,14.80
2022-11-30T00:06:49.653Z,14.98
2022-11-30T00:09:13.230Z,15.85
2022-11-30T00:11:35.897Z,14.10
2022-11-30T00:13:58.451Z,14.98
2022-11-30T00:16:21.960Z,14.40
2022-11-30T00:18:44.553Z,15.07
2022-11-30T00:21:10.542Z,15.30
2022-11-30T00:23:37.559Z,13.82
2022-11-30T00:26:05.660Z,13.75
2022-11-30T00:28:30.832Z,13.87
2022-11-30T00:31:04.931Z,13.88
2022-11-30T00:33:28.323Z,15.20
2022-11-30T00:35:58.505Z,14.18
2022-11-30T00:38:21.093Z,14.43
2022-11-30T00:40:43.624Z,14.70
2022-11-30T00:43:06.407Z,14.90
2022-11-30T00:45:28.952Z,14.85
2022-11-30T00:47:51.805Z,14.63
2022-11-30T00:50:14.379Z,14.18
2022-11-30T00:52:36.902Z,13.63
2022-11-30T00:55:02.799Z,13.25
2022-11-30T00:57:26.554Z,13.68
2022-11-30T00:59:49.153Z,14.10
2022-11-30T01:02:12.776Z,15.18
2022-11-30T01:04:35.375Z,13.33
2022-11-30T01:06:57.859Z,14.23
2022-11-30T01:09:20.448Z,13.68
2022-11-30T01:11:43.111Z,14.13
2022-11-30T01:14:05.757Z,13.77
2022-11-30T01:16:32.009Z,13.67
2022-11-30T01:18:55.052Z,14.52
2022-11-30T01:21:21.005Z,13.85
2022-11-30T01:23:44.207Z,12.50
2022-11-30T01:26:08.259Z,13.60
2022-11-30T01:28:31.399Z,12.67
2022-11-30T01:31:05.473Z,12.98
2022-11-30T01:33:28.147Z,12.82
2022-11-30T01:35:59.201Z,12.80
2022-11-30T01:38:21.793Z,13.07
2022-11-30T01:40:50.678Z,12.47
2022-11-30T01:43:13.298Z,11.57
2022-11-30T01:45:35.857Z,12.45
2022-11-30T01:47:58.579Z,11.77
2022-11-30T01:50:41.492Z,11.95
2022-11-30T01:53:05.521Z,11.70
2022-11-30T01:55:28.138Z,10.68
2022-11-30T01:57:53.087Z,11.35
2022-11-30T02:00:16.420Z,10.70
2022-11-30T02:02:56.830Z,10.10
2022-11-30T02:05:21.109Z,10.73
2022-11-30T02:07:44.271Z,10.13
2022-11-30T02:10:07.473Z,10.60
2022-11-30T02:12:56.611Z,10.73
2022-11-30T02:15:25.207Z,9.50
2022-11-30T02:18:01.810Z,10.70
2022-11-30T02:20:33.569Z,10.77
2022-11-30T02:23:15.369Z,10.98
2022-11-30T02:26:03.568Z,10.80
2022-11-30T02:28:32.283Z,11.18
2022-11-30T02:30:57.984Z,10.70
2022-11-30T02:33:27.020Z,9.88
2022-11-30T02:35:55.345Z,10.23
2022-11-30T02:38:24.044Z,10.88
2022-11-30T02:40:46.630Z,10.98
2022-11-30T02:43:09.336Z,10.67
2022-11-30T02:45:40.775Z,10.57
2022-11-30T02:48:11.727Z,10.45
2022-11-30T02:50:52.868Z,10.70
2022-11-30T02:53:15.501Z,11.27
2022-11-30T02:55:38.174Z,10.47
2022-11-30T02:58:01.278Z,10.60
2022-11-30T03:00:24.252Z,11.35
2022-11-30T03:02:47.901Z,10.93
2022-11-30T03:05:10.354Z,10.52
2022-11-30T03:07:33.036Z,10.60
2022-11-30T03:09:55.970Z,10.05
2022-11-30T03:12:18.512Z,11.27
2022-11-30T03:14:41.189Z,10.23
2022-11-30T03:17:04.237Z,10.95
2022-11-30T03:19:27.000Z,10.60
2022-11-30T03:21:49.577Z,10.52
2022-11-30T03:24:12.224Z,10.98
2022-11-30T03:26:34.845Z,10.20
2022-11-30T03:28:57.434Z,11.48
2022-11-30T03:31:20.068Z,10.23
2022-11-30T03:33:43.600Z,10.98
2022-11-30T03:36:08.699Z,10.27
2022-11-30T03:38:31.902Z,10.60
2022-11-30T03:41:08.707Z,11.65
2022-11-30T03:43:31.399Z,9.70
2022-11-30T03:45:53.972Z,10.32
2022-11-30T03:48:16.496Z,11.35
2022-11-30T03:50:39.083Z,10.93
2022-11-30T03:53:01.699Z,11.65
2022-11-30T03:55:24.236Z,10.77
2022-11-30T03:57:46.849Z,10.93
2022-11-30T04:00:09.963Z,10.52
2022-11-30T04:02:38.944Z,10.63
2022-11-30T04:05:04.516Z,10.98
2022-11-30T04:07:27.159Z,10.80
2022-11-30T04:09:49.971Z,10.98
2022-11-30T04:12:12.667Z,10.30
2022-11-30T04:14:35.288Z,10.43
2022-11-30T04:16:57.739Z,10.43
2022-11-30T04:19:20.432Z,10.97
2022-11-30T04:21:43.081Z,10.38
2022-11-30T04:24:06.134Z,10.55
2022-11-30T04:26:28.749Z,10.60
2022-11-30T04:28:51.325Z,10.85
2022-11-30T04:31:14.110Z,10.13
2022-11-30T04:33:37.147Z,10.73
2022-11-30T04:36:03.475Z,10.98
2022-11-30T04:38:26.981Z,10.20
2022-11-30T04:40:49.911Z,10.75
2022-11-30T04:43:13.303Z,9.43
2022-11-30T04:45:35.942Z,10.23
2022-11-30T04:47:58.596Z,9.32
2022-11-30T04:50:21.277Z,10.10
2022-11-30T04:52:43.984Z,10.18
2022-11-30T04:55:06.953Z,10.07
2022-11-30T04:57:30.053Z,10.20
2022-11-30T04:59:53.201Z,10.30
2022-11-30T05:02:16.060Z,9.55
2022-11-30T05:04:38.695Z,10.40
2022-11-30T05:07:01.654Z,10.30
2022-11-30T05:09:24.352Z,10.52
2022-11-30T05:11:48.659Z,9.82
2022-11-30T05:14:11.263Z,9.80
2022-11-30T05:16:33.965Z,10.65
2022-11-30T05:18:56.700Z,9.97
2022-11-30T05:21:19.331Z,10.63
2022-11-30T05:23:41.870Z,10.52
2022-11-30T05:26:04.472Z,10.23
2022-11-30T05:28:26.946Z,10.48
2022-11-30T05:30:49.536Z,10.07
2022-11-30T05:33:12.448Z,9.95
2022-11-30T05:35:36.641Z,10.15
2022-11-30T05:37:59.317Z,11.25
2022-11-30T05:40:21.926Z,9.93
2022-11-30T05:42:44.535Z,10.27
2022-11-30T05:45:07.780Z,10.60
2022-11-30T05:47:30.328Z,10.68
2022-11-30T05:49:52.941Z,10.13
2022-11-30T05:52:15.517Z,10.65
2022-11-30T05:54:38.128Z,10.00
2022-11-30T05:57:00.764Z,10.18
2022-11-30T05:59:23.820Z,10.43
2022-11-30T06:01:46.491Z,11.02
2022-11-30T06:04:09.243Z,10.68
2022-11-30T06:06:32.605Z,10.97
2022-11-30T06:08:55.484Z,10.68
2022-11-30T06:11:18.307Z,11.73
2022-11-30T06:13:41.412Z,11.88
2022-11-30T06:16:05.214Z,13.85
2022-11-30T06:18:28.178Z,13.27
2022-11-30T06:20:50.808Z,12.30
2022-11-30T06:23:13.461Z,13.77
2022-11-30T06:25:36.101Z,11.98
2022-11-30T06:27:59.271Z,11.55
2022-11-30T06:30:22.298Z,10.90
2022-11-30T06:32:45.951Z,10.75
2022-11-30T06:35:08.855Z,11.32
2022-11-30T06:37:35.012Z,10.85
2022-11-30T06:40:06.388Z,11.18
2022-11-30T06:42:31.935Z,10.17
2022-11-30T06:44:54.452Z,10.20
2022-11-30T06:47:17.124Z,11.30
2022-11-30T06:49:39.761Z,9.98
2022-11-30T06:52:02.412Z,10.40
2022-11-30T06:54:24.928Z,9.70
2022-11-30T06:56:48.643Z,10.35
2022-11-30T06:59:11.425Z,9.88
2022-11-30T07:01:34.098Z,9.98
2022-11-30T07:03:56.755Z,10.35
2022-11-30T07:06:20.990Z,9.53
2022-11-30T07:08:44.258Z,9.93
2022-11-30T07:11:08.764Z,9.73
2022-11-30T07:13:31.458Z,9.02
2022-11-30T07:15:54.118Z,9.98
2022-11-30T07:18:17.040Z,9.43
2022-11-30T07:20:40.646Z,9.15
2022-11-30T07:23:22.710Z,8.77
2022-11-30T07:26:04.579Z,8.90
2022-11-30T07:28:27.438Z,8.48
2022-11-30T07:30:50.336Z,7.97
2022-11-30T07:33:13.354Z,7.55
2022-11-30T07:35:36.361Z,8.18
2022-11-30T07:37:59.423Z,8.15
2022-11-30T07:40:22.236Z,8.48
2022-11-30T07:42:44.936Z,6.83
2022-11-30T07:45:08.163Z,7.43
2022-11-30T07:47:30.979Z,7.75
2022-11-30T07:49:53.859Z,7.63
2022-11-30T07:53:31.842Z,7.55
2022-11-30T07:56:17.673Z,7.27
2022-11-30T07:58:41.718Z,7.03
2022-11-30T08:26:35.161Z,7.03
